sensor_id;sensor_type;location;lat;lon;timestamp;P1;durP1;ratioP1;P2;durP2;ratioP2
36423;SDS011;22458;45.328;9.514;2023-07-09T00:02:17;11.85;;;8.75;;
36423;SDS011;22458;45.328;9.514;2023-07-09T00:04:43;11.85;;;8.25;;
36423;SDS011;22458;45.328;9.514;2023-07-09T00:07:27;11.52;;;8.70;;
36423;SDS011;22458;45.328;9.514;2023-07-09T00:09:54;10.82;;;7.65;;
36423;SDS011;22458;45.328;9.514;2023-07-09T00:12:21;8.73;;;7.50;;
36423;SDS011;22458;45.328;9.514;2023-07-09T00:14:47;12.10;;;7.18;;
36423;SDS011;22458;45.328;9.514;2023-07-09T00:17:26;12.57;;;9.07;;
36423;SDS011;22458;45.328;9.514;2023-07-09T00:19:54;10.85;;;8.20;;
36423;SDS011;22458;45.328;9.514;2023-07-09T00:22:20;10.80;;;8.32;;
36423;SDS011;22458;45.328;9.514;2023-07-09T00:24:46;12.52;;;9.68;;
36423;SDS011;22458;45.328;9.514;2023-07-09T00:27:19;14.40;;;8.50;;
36423;SDS011;22458;45.328;9.514;2023-07-09T00:29:46;12.52;;;8.65;;
36423;SDS011;22458;45.328;9.514;2023-07-09T00:32:12;9.70;;;8.10;;
36423;SDS011;22458;45.328;9.514;2023-07-09T00:34:42;11.05;;;9.52;;
36423;SDS011;22458;45.328;9.514;2023-07-09T00:37:13;11.35;;;7.78;;
36423;SDS011;22458;45.328;9.514;2023-07-09T00:39:45;11.95;;;8.35;;
36423;SDS011;22458;45.328;9.514;2023-07-09T00:42:16;10.02;;;7.72;;
36423;SDS011;22458;45.328;9.514;2023-07-09T00:44:47;11.93;;;8.88;;
36423;SDS011;22458;45.328;9.514;2023-07-09T00:53:28;9.85;;;8.85;;
36423;SDS011;22458;45.328;9.514;2023-07-09T00:55:59;11.23;;;9.13;;
36423;SDS011;22458;45.328;9.514;2023-07-09T00:58:30;13.23;;;9.50;;
36423;SDS011;22458;45.328;9.514;2023-07-09T01:01:01;12.95;;;10.10;;
36423;SDS011;22458;45.328;9.514;2023-07-09T01:03:38;14.02;;;9.30;;
36423;SDS011;22458;45.328;9.514;2023-07-09T01:06:07;14.70;;;10.13;;
36423;SDS011;22458;45.328;9.514;2023-07-09T01:08:35;12.68;;;9.70;;
36423;SDS011;22458;45.328;9.514;2023-07-09T01:11:03;11.15;;;9.65;;
36423;SDS011;22458;45.328;9.514;2023-07-09T01:13:33;14.35;;;10.40;;
36423;SDS011;22458;45.328;9.514;2023-07-09T01:16:00;14.50;;;10.30;;
36423;SDS011;22458;45.328;9.514;2023-07-09T01:18:26;14.15;;;9.70;;
36423;SDS011;22458;45.328;9.514;2023-07-09T01:21:01;12.82;;;10.85;;
36423;SDS011;22458;45.328;9.514;2023-07-09T01:23:32;11.90;;;10.00;;
36423;SDS011;22458;45.328;9.514;2023-07-09T01:25:59;11.82;;;9.00;;
36423;SDS011;22458;45.328;9.514;2023-07-09T01:28:25;14.48;;;11.10;;
36423;SDS011;22458;45.328;9.514;2023-07-09T01:30:50;11.85;;;9.05;;
36423;SDS011;22458;45.328;9.514;2023-07-09T01:33:19;13.60;;;9.13;;
36423;SDS011;22458;45.328;9.514;2023-07-09T01:35:48;16.55;;;10.15;;
36423;SDS011;22458;45.328;9.514;2023-07-09T01:38:14;13.02;;;8.77;;
36423;SDS011;22458;45.328;9.514;2023-07-09T01:40:40;11.48;;;8.95;;
36423;SDS011;22458;45.328;9.514;2023-07-09T01:43:06;15.35;;;9.20;;
36423;SDS011;22458;45.328;9.514;2023-07-09T01:45:33;13.02;;;10.77;;
36423;SDS011;22458;45.328;9.514;2023-07-09T01:47:59;12.55;;;9.98;;
36423;SDS011;22458;45.328;9.514;2023-07-09T01:50:26;12.95;;;10.57;;
36423;SDS011;22458;45.328;9.514;2023-07-09T01:52:52;13.55;;;9.75;;
36423;SDS011;22458;45.328;9.514;2023-07-09T01:55:20;13.23;;;9.68;;
36423;SDS011;22458;45.328;9.514;2023-07-09T01:57:46;13.07;;;10.73;;
36423;SDS011;22458;45.328;9.514;2023-07-09T02:00:13;15.20;;;10.40;;
36423;SDS011;22458;45.328;9.514;2023-07-09T02:02:43;14.77;;;10.88;;
36423;SDS011;22458;45.328;9.514;2023-07-09T02:05:18;15.20;;;10.95;;
36423;SDS011;22458;45.328;9.514;2023-07-09T02:07:45;12.45;;;10.45;;
36423;SDS011;22458;45.328;9.514;2023-07-09T02:10:12;17.95;;;10.70;;
36423;SDS011;22458;45.328;9.514;2023-07-09T02:12:39;12.93;;;10.27;;
36423;SDS011;22458;45.328;9.514;2023-07-09T02:15:05;14.00;;;11.00;;
36423;SDS011;22458;45.328;9.514;2023-07-09T02:17:31;13.25;;;11.23;;
36423;SDS011;22458;45.328;9.514;2023-07-09T02:19:57;14.73;;;11.15;;
36423;SDS011;22458;45.328;9.514;2023-07-09T02:22:23;16.15;;;11.43;;
36423;SDS011;22458;45.328;9.514;2023-07-09T02:24:50;14.65;;;11.30;;
36423;SDS011;22458;45.328;9.514;2023-07-09T02:27:19;13.32;;;10.88;;
36423;SDS011;22458;45.328;9.514;2023-07-09T02:29:45;18.02;;;11.80;;
36423;SDS011;22458;45.328;9.514;2023-07-09T02:32:13;14.88;;;11.43;;
36423;SDS011;22458;45.328;9.514;2023-07-09T02:34:45;13.90;;;11.43;;
36423;SDS011;22458;45.328;9.514;2023-07-09T02:37:18;16.48;;;12.27;;
36423;SDS011;22458;45.328;9.514;2023-07-09T02:39:45;12.90;;;11.25;;
36423;SDS011;22458;45.328;9.514;2023-07-09T02:42:12;16.05;;;11.73;;
36423;SDS011;22458;45.328;9.514;2023-07-09T02:44:39;12.88;;;11.15;;
36423;SDS011;22458;45.328;9.514;2023-07-09T02:47:06;17.38;;;12.35;;
36423;SDS011;22458;45.328;9.514;2023-07-09T02:49:33;17.58;;;13.45;;
36423;SDS011;22458;45.328;9.514;2023-07-09T02:51:59;13.38;;;11.98;;
36423;SDS011;22458;45.328;9.514;2023-07-09T02:54:25;17.92;;;12.65;;
36423;SDS011;22458;45.328;9.514;2023-07-09T02:56:51;19.15;;;13.25;;
36423;SDS011;22458;45.328;9.514;2023-07-09T02:59:17;14.65;;;11.95;;
36423;SDS011;22458;45.328;9.514;2023-07-09T03:01:43;16.58;;;12.70;;
36423;SDS011;22458;45.328;9.514;2023-07-09T03:04:09;16.38;;;13.02;;
36423;SDS011;22458;45.328;9.514;2023-07-09T03:06:35;16.23;;;12.55;;
36423;SDS011;22458;45.328;9.514;2023-07-09T03:09:04;17.60;;;11.27;;
36423;SDS011;22458;45.328;9.514;2023-07-09T03:11:31;13.85;;;11.98;;
36423;SDS011;22458;45.328;9.514;2023-07-09T03:13:58;14.32;;;11.73;;
36423;SDS011;22458;45.328;9.514;2023-07-09T03:16:29;15.82;;;12.52;;
36423;SDS011;22458;45.328;9.514;2023-07-09T03:18:56;16.35;;;13.15;;
36423;SDS011;22458;45.328;9.514;2023-07-09T03:21:23;15.00;;;12.25;;
36423;SDS011;22458;45.328;9.514;2023-07-09T03:23:51;15.90;;;13.68;;
36423;SDS011;22458;45.328;9.514;2023-07-09T03:26:18;18.25;;;13.27;;
36423;SDS011;22458;45.328;9.514;2023-07-09T03:28:44;18.30;;;13.40;;
36423;SDS011;22458;45.328;9.514;2023-07-09T03:31:10;17.00;;;12.25;;
36423;SDS011;22458;45.328;9.514;2023-07-09T03:33:36;16.42;;;13.27;;
36423;SDS011;22458;45.328;9.514;2023-07-09T03:36:01;21.00;;;16.67;;
36423;SDS011;22458;45.328;9.514;2023-07-09T03:38:29;15.77;;;13.32;;
36423;SDS011;22458;45.328;9.514;2023-07-09T03:40:56;16.92;;;13.95;;
36423;SDS011;22458;45.328;9.514;2023-07-09T03:43:22;17.85;;;14.70;;
36423;SDS011;22458;45.328;9.514;2023-07-09T03:45:49;15.95;;;14.00;;
36423;SDS011;22458;45.328;9.514;2023-07-09T03:48:15;19.58;;;15.45;;
36423;SDS011;22458;45.328;9.514;2023-07-09T03:50:43;19.40;;;16.42;;
36423;SDS011;22458;45.328;9.514;2023-07-09T03:53:10;20.17;;;15.10;;
36423;SDS011;22458;45.328;9.514;2023-07-09T03:55:36;19.75;;;14.32;;
36423;SDS011;22458;45.328;9.514;2023-07-09T03:58:02;16.02;;;13.93;;
36423;SDS011;22458;45.328;9.514;2023-07-09T04:00:29;18.23;;;14.52;;
36423;SDS011;22458;45.328;9.514;2023-07-09T04:02:55;17.83;;;14.13;;
36423;SDS011;22458;45.328;9.514;2023-07-09T04:05:24;15.68;;;14.02;;
36423;SDS011;22458;45.328;9.514;2023-07-09T04:07:50;19.20;;;14.00;;
36423;SDS011;22458;45.328;9.514;2023-07-09T04:10:16;18.67;;;12.95;;
36423;SDS011;22458;45.328;9.514;2023-07-09T04:12:43;14.15;;;12.32;;
36423;SDS011;22458;45.328;9.514;2023-07-09T04:15:09;16.73;;;13.93;;
36423;SDS011;22458;45.328;9.514;2023-07-09T04:17:37;18.48;;;12.40;;
36423;SDS011;22458;45.328;9.514;2023-07-09T04:20:04;19.73;;;12.15;;
36423;SDS011;22458;45.328;9.514;2023-07-09T04:22:31;17.55;;;12.55;;
36423;SDS011;22458;45.328;9.514;2023-07-09T04:24:57;20.50;;;13.10;;
36423;SDS011;22458;45.328;9.514;2023-07-09T04:27:23;16.92;;;13.30;;
36423;SDS011;22458;45.328;9.514;2023-07-09T04:29:52;20.70;;;13.88;;
36423;SDS011;22458;45.328;9.514;2023-07-09T04:32:18;17.83;;;13.05;;
36423;SDS011;22458;45.328;9.514;2023-07-09T04:34:45;16.33;;;13.00;;
36423;SDS011;22458;45.328;9.514;2023-07-09T04:37:11;16.27;;;12.55;;
36423;SDS011;22458;45.328;9.514;2023-07-09T04:39:38;16.20;;;12.57;;
36423;SDS011;22458;45.328;9.514;2023-07-09T04:42:05;15.60;;;12.15;;
36423;SDS011;22458;45.328;9.514;2023-07-09T04:44:31;16.05;;;13.10;;
36423;SDS011;22458;45.328;9.514;2023-07-09T04:46:57;17.98;;;13.52;;
36423;SDS011;22458;45.328;9.514;2023-07-09T04:49:23;15.40;;;11.93;;
36423;SDS011;22458;45.328;9.514;2023-07-09T04:51:48;16.13;;;13.07;;
36423;SDS011;22458;45.328;9.514;2023-07-09T04:54:14;16.98;;;12.55;;
36423;SDS011;22458;45.328;9.514;2023-07-09T04:56:40;13.40;;;11.93;;
36423;SDS011;22458;45.328;9.514;2023-07-09T04:59:10;14.52;;;11.57;;
36423;SDS011;22458;45.328;9.514;2023-07-09T05:01:36;16.17;;;12.20;;
36423;SDS011;22458;45.328;9.514;2023-07-09T05:04:02;18.08;;;12.90;;
36423;SDS011;22458;45.328;9.514;2023-07-09T05:06:29;17.42;;;12.63;;
36423;SDS011;22458;45.328;9.514;2023-07-09T05:08:54;14.85;;;12.55;;
36423;SDS011;22458;45.328;9.514;2023-07-09T05:11:20;13.50;;;11.77;;
36423;SDS011;22458;45.328;9.514;2023-07-09T05:13:46;17.98;;;11.82;;
36423;SDS011;22458;45.328;9.514;2023-07-09T05:16:12;11.38;;;9.88;;
36423;SDS011;22458;45.328;9.514;2023-07-09T05:18:39;14.40;;;11.55;;
36423;SDS011;22458;45.328;9.514;2023-07-09T05:21:04;19.58;;;11.45;;
36423;SDS011;22458;45.328;9.514;2023-07-09T05:23:30;12.93;;;9.95;;
36423;SDS011;22458;45.328;9.514;2023-07-09T05:25:57;14.73;;;11.85;;
36423;SDS011;22458;45.328;9.514;2023-07-09T05:28:24;23.35;;;11.27;;
36423;SDS011;22458;45.328;9.514;2023-07-09T05:30:50;14.05;;;10.75;;
36423;SDS011;22458;45.328;9.514;2023-07-09T05:33:16;13.00;;;10.15;;
36423;SDS011;22458;45.328;9.514;2023-07-09T05:35:43;13.57;;;10.60;;
36423;SDS011;22458;45.328;9.514;2023-07-09T05:38:10;14.15;;;10.07;;
36423;SDS011;22458;45.328;9.514;2023-07-09T05:40:36;12.20;;;9.70;;
36423;SDS011;22458;45.328;9.514;2023-07-09T05:43:01;11.88;;;9.43;;
36423;SDS011;22458;45.328;9.514;2023-07-09T05:45:27;14.55;;;9.70;;
36423;SDS011;22458;45.328;9.514;2023-07-09T05:47:53;12.65;;;10.20;;
36423;SDS011;22458;45.328;9.514;2023-07-09T05:50:19;12.93;;;10.30;;
36423;SDS011;22458;45.328;9.514;2023-07-09T05:52:45;15.73;;;9.82;;
36423;SDS011;22458;45.328;9.514;2023-07-09T05:55:11;10.77;;;8.70;;
36423;SDS011;22458;45.328;9.514;2023-07-09T05:57:37;13.43;;;9.35;;
36423;SDS011;22458;45.328;9.514;2023-07-09T06:00:04;15.63;;;9.52;;
36423;SDS011;22458;45.328;9.514;2023-07-09T06:02:38;16.05;;;10.07;;
36423;SDS011;22458;45.328;9.514;2023-07-09T06:05:05;13.20;;;11.45;;
36423;SDS011;22458;45.328;9.514;2023-07-09T06:07:34;12.20;;;10.20;;
36423;SDS011;22458;45.328;9.514;2023-07-09T06:10:00;13.25;;;11.02;;
36423;SDS011;22458;45.328;9.514;2023-07-09T06:12:26;14.85;;;10.73;;
36423;SDS011;22458;45.328;9.514;2023-07-09T06:14:51;13.10;;;9.80;;
36423;SDS011;22458;45.328;9.514;2023-07-09T06:17:17;15.90;;;11.27;;
36423;SDS011;22458;45.328;9.514;2023-07-09T06:19:43;15.32;;;10.43;;
36423;SDS011;22458;45.328;9.514;2023-07-09T06:22:09;17.45;;;11.45;;
36423;SDS011;22458;45.328;9.514;2023-07-09T06:24:34;13.50;;;10.18;;
36423;SDS011;22458;45.328;9.514;2023-07-09T06:27:00;15.50;;;10.40;;
36423;SDS011;22458;45.328;9.514;2023-07-09T06:29:26;13.80;;;10.15;;
36423;SDS011;22458;45.328;9.514;2023-07-09T06:31:52;16.08;;;11.40;;
36423;SDS011;22458;45.328;9.514;2023-07-09T06:34:18;15.30;;;10.93;;
36423;SDS011;22458;45.328;9.514;2023-07-09T06:36:43;14.40;;;9.68;;
36423;SDS011;22458;45.328;9.514;2023-07-09T06:39:09;14.10;;;10.43;;
36423;SDS011;22458;45.328;9.514;2023-07-09T06:41:35;13.23;;;10.40;;
36423;SDS011;22458;45.328;9.514;2023-07-09T06:44:07;15.45;;;11.00;;
36423;SDS011;22458;45.328;9.514;2023-07-09T06:46:34;12.25;;;10.23;;
36423;SDS011;22458;45.328;9.514;2023-07-09T06:49:01;15.45;;;10.10;;
36423;SDS011;22458;45.328;9.514;2023-07-09T06:51:27;15.90;;;11.52;;
36423;SDS011;22458;45.328;9.514;2023-07-09T06:53:53;12.00;;;10.63;;
36423;SDS011;22458;45.328;9.514;2023-07-09T06:56:19;17.90;;;10.23;;
36423;SDS011;22458;45.328;9.514;2023-07-09T06:58:45;13.52;;;10.88;;
36423;SDS011;22458;45.328;9.514;2023-07-09T07:01:11;15.02;;;10.30;;
36423;SDS011;22458;45.328;9.514;2023-07-09T07:03:37;13.82;;;10.63;;
36423;SDS011;22458;45.328;9.514;2023-07-09T07:06:04;13.27;;;10.45;;
36423;SDS011;22458;45.328;9.514;2023-07-09T07:08:33;13.23;;;9.45;;
36423;SDS011;22458;45.328;9.514;2023-07-09T07:11:01;13.50;;;10.05;;
36423;SDS011;22458;45.328;9.514;2023-07-09T07:13:39;12.80;;;9.35;;
36423;SDS011;22458;45.328;9.514;2023-07-09T07:16:07;12.63;;;9.73;;
36423;SDS011;22458;45.328;9.514;2023-07-09T07:18:37;13.27;;;9.05;;
36423;SDS011;22458;45.328;9.514;2023-07-09T07:21:03;12.63;;;9.45;;
36423;SDS011;22458;45.328;9.514;2023-07-09T07:23:29;12.07;;;8.85;;
36423;SDS011;22458;45.328;9.514;2023-07-09T07:25:55;13.80;;;9.55;;
36423;SDS011;22458;45.328;9.514;2023-07-09T07:28:21;13.80;;;9.50;;
36423;SDS011;22458;45.328;9.514;2023-07-09T07:30:57;12.43;;;8.65;;
36423;SDS011;22458;45.328;9.514;2023-07-09T07:33:26;10.68;;;8.43;;
36423;SDS011;22458;45.328;9.514;2023-07-09T07:35:52;11.35;;;8.23;;
36423;SDS011;22458;45.328;9.514;2023-07-09T07:38:18;13.98;;;9.73;;
36423;SDS011;22458;45.328;9.514;2023-07-09T07:40:44;12.70;;;9.35;;
36423;SDS011;22458;45.328;9.514;2023-07-09T07:43:10;17.42;;;10.45;;
36423;SDS011;22458;45.328;9.514;2023-07-09T07:45:35;13.85;;;9.50;;
36423;SDS011;22458;45.328;9.514;2023-07-09T07:48:05;13.13;;;9.23;;
36423;SDS011;22458;45.328;9.514;2023-07-09T07:50:31;16.45;;;11.02;;
36423;SDS011;22458;45.328;9.514;2023-07-09T07:52:56;13.02;;;9.68;;
36423;SDS011;22458;45.328;9.514;2023-07-09T07:55:22;13.82;;;10.27;;
36423;SDS011;22458;45.328;9.514;2023-07-09T07:57:48;11.55;;;8.95;;
36423;SDS011;22458;45.328;9.514;2023-07-09T08:00:14;12.07;;;9.55;;
36423;SDS011;22458;45.328;9.514;2023-07-09T08:02:40;15.00;;;10.20;;
36423;SDS011;22458;45.328;9.514;2023-07-09T08:05:06;14.15;;;10.95;;
36423;SDS011;22458;45.328;9.514;2023-07-09T08:07:32;16.60;;;10.45;;
36423;SDS011;22458;45.328;9.514;2023-07-09T08:09:58;14.35;;;10.90;;
36423;SDS011;22458;45.328;9.514;2023-07-09T08:12:23;13.00;;;10.70;;
36423;SDS011;22458;45.328;9.514;2023-07-09T08:14:49;15.63;;;12.10;;
36423;SDS011;22458;45.328;9.514;2023-07-09T08:17:15;13.68;;;11.00;;
36423;SDS011;22458;45.328;9.514;2023-07-09T08:19:44;18.77;;;11.73;;
36423;SDS011;22458;45.328;9.514;2023-07-09T08:22:14;15.85;;;11.43;;
36423;SDS011;22458;45.328;9.514;2023-07-09T08:24:41;12.65;;;10.30;;
36423;SDS011;22458;45.328;9.514;2023-07-09T08:27:07;14.00;;;11.07;;
36423;SDS011;22458;45.328;9.514;2023-07-09T08:29:34;16.98;;;11.43;;
36423;SDS011;22458;45.328;9.514;2023-07-09T08:32:01;16.92;;;11.10;;
36423;SDS011;22458;45.328;9.514;2023-07-09T08:34:28;14.93;;;11.15;;
36423;SDS011;22458;45.328;9.514;2023-07-09T08:36:53;14.10;;;10.77;;
36423;SDS011;22458;45.328;9.514;2023-07-09T08:39:19;14.45;;;10.68;;
36423;SDS011;22458;45.328;9.514;2023-07-09T08:41:47;14.27;;;9.95;;
36423;SDS011;22458;45.328;9.514;2023-07-09T08:49:50;13.75;;;9.95;;
36423;SDS011;22458;45.328;9.514;2023-07-09T08:54:48;14.07;;;10.80;;
36423;SDS011;22458;45.328;9.514;2023-07-09T08:57:22;12.00;;;10.18;;
36423;SDS011;22458;45.328;9.514;2023-07-09T08:59:52;12.05;;;8.82;;
36423;SDS011;22458;45.328;9.514;2023-07-09T09:02:44;12.43;;;9.50;;
36423;SDS011;22458;45.328;9.514;2023-07-09T09:05:16;13.32;;;10.10;;
36423;SDS011;22458;45.328;9.514;2023-07-09T09:07:44;13.00;;;9.77;;
36423;SDS011;22458;45.328;9.514;2023-07-09T09:10:18;14.00;;;9.80;;
36423;SDS011;22458;45.328;9.514;2023-07-09T09:15:19;11.13;;;8.45;;
36423;SDS011;22458;45.328;9.514;2023-07-09T09:17:46;14.55;;;10.23;;
36423;SDS011;22458;45.328;9.514;2023-07-09T09:20:32;11.00;;;8.38;;
36423;SDS011;22458;45.328;9.514;2023-07-09T09:23:04;15.57;;;9.90;;
36423;SDS011;22458;45.328;9.514;2023-07-09T09:25:41;13.57;;;9.27;;
36423;SDS011;22458;45.328;9.514;2023-07-09T09:28:11;13.25;;;8.68;;
36423;SDS011;22458;45.328;9.514;2023-07-09T09:30:39;13.80;;;9.20;;
36423;SDS011;22458;45.328;9.514;2023-07-09T09:33:06;10.35;;;7.70;;
36423;SDS011;22458;45.328;9.514;2023-07-09T09:38:01;11.73;;;8.20;;
36423;SDS011;22458;45.328;9.514;2023-07-09T09:40:29;11.02;;;9.23;;
36423;SDS011;22458;45.328;9.514;2023-07-09T09:42:59;13.35;;;8.60;;
36423;SDS011;22458;45.328;9.514;2023-07-09T09:45:27;9.20;;;7.25;;
36423;SDS011;22458;45.328;9.514;2023-07-09T09:48:09;10.27;;;8.25;;
36423;SDS011;22458;45.328;9.514;2023-07-09T09:50:57;12.60;;;8.18;;
36423;SDS011;22458;45.328;9.514;2023-07-09T09:53:28;11.68;;;7.82;;
36423;SDS011;22458;45.328;9.514;2023-07-09T09:55:59;10.32;;;8.30;;
36423;SDS011;22458;45.328;9.514;2023-07-09T09:58:30;11.60;;;7.13;;
36423;SDS011;22458;45.328;9.514;2023-07-09T10:00:57;14.30;;;9.05;;
36423;SDS011;22458;45.328;9.514;2023-07-09T10:03:37;10.60;;;8.10;;
36423;SDS011;22458;45.328;9.514;2023-07-09T10:08:57;11.98;;;9.23;;
36423;SDS011;22458;45.328;9.514;2023-07-09T10:11:30;12.55;;;9.00;;
36423;SDS011;22458;45.328;9.514;2023-07-09T10:14:08;12.45;;;8.23;;
36423;SDS011;22458;45.328;9.514;2023-07-09T10:16:59;12.40;;;9.13;;
36423;SDS011;22458;45.328;9.514;2023-07-09T10:19:34;9.07;;;7.68;;
36423;SDS011;22458;45.328;9.514;2023-07-09T10:25:25;8.25;;;6.03;;
36423;SDS011;22458;45.328;9.514;2023-07-09T10:36:34;7.07;;;4.60;;
36423;SDS011;22458;45.328;9.514;2023-07-09T10:39:24;6.47;;;4.20;;
36423;SDS011;22458;45.328;9.514;2023-07-09T10:41:55;7.10;;;4.95;;
36423;SDS011;22458;45.328;9.514;2023-07-09T10:44:38;7.47;;;4.97;;
36423;SDS011;22458;45.328;9.514;2023-07-09T10:47:11;6.88;;;4.43;;
36423;SDS011;22458;45.328;9.514;2023-07-09T10:49:47;10.20;;;4.20;;
36423;SDS011;22458;45.328;9.514;2023-07-09T10:52:20;5.55;;;3.60;;
36423;SDS011;22458;45.328;9.514;2023-07-09T11:00:24;6.80;;;4.35;;
36423;SDS011;22458;45.328;9.514;2023-07-09T11:03:00;6.63;;;4.60;;
36423;SDS011;22458;45.328;9.514;2023-07-09T11:05:30;5.80;;;4.20;;
36423;SDS011;22458;45.328;9.514;2023-07-09T11:07:59;6.30;;;4.70;;
36423;SDS011;22458;45.328;9.514;2023-07-09T11:10:34;6.45;;;4.75;;
36423;SDS011;22458;45.328;9.514;2023-07-09T11:13:26;6.13;;;4.35;;
36423;SDS011;22458;45.328;9.514;2023-07-09T11:15:59;6.10;;;4.07;;
36423;SDS011;22458;45.328;9.514;2023-07-09T11:18:26;6.10;;;3.33;;
36423;SDS011;22458;45.328;9.514;2023-07-09T11:21:08;5.53;;;3.67;;
36423;SDS011;22458;45.328;9.514;2023-07-09T11:23:50;6.25;;;4.20;;
36423;SDS011;22458;45.328;9.514;2023-07-09T11:36:45;7.63;;;3.90;;
36423;SDS011;22458;45.328;9.514;2023-07-09T11:40:12;4.95;;;3.80;;
36423;SDS011;22458;45.328;9.514;2023-07-09T11:42:23;4.45;;;3.13;;
36423;SDS011;22458;45.328;9.514;2023-07-09T11:45:12;4.82;;;3.30;;
36423;SDS011;22458;45.328;9.514;2023-07-09T11:53:41;5.50;;;3.67;;
36423;SDS011;22458;45.328;9.514;2023-07-09T11:56:07;7.75;;;4.18;;
36423;SDS011;22458;45.328;9.514;2023-07-09T11:58:33;6.00;;;4.00;;
36423;SDS011;22458;45.328;9.514;2023-07-09T12:00:59;5.40;;;3.15;;
36423;SDS011;22458;45.328;9.514;2023-07-09T12:03:32;4.78;;;3.60;;
36423;SDS011;22458;45.328;9.514;2023-07-09T12:06:03;4.95;;;3.45;;
36423;SDS011;22458;45.328;9.514;2023-07-09T12:08:33;9.13;;;3.45;;
36423;SDS011;22458;45.328;9.514;2023-07-09T12:11:01;6.35;;;3.35;;
36423;SDS011;22458;45.328;9.514;2023-07-09T12:13:27;7.80;;;3.63;;
36423;SDS011;22458;45.328;9.514;2023-07-09T12:15:52;6.70;;;3.83;;
36423;SDS011;22458;45.328;9.514;2023-07-09T12:18:18;4.75;;;3.80;;
36423;SDS011;22458;45.328;9.514;2023-07-09T12:20:51;5.78;;;3.78;;
36423;SDS011;22458;45.328;9.514;2023-07-09T12:23:29;4.93;;;3.85;;
36423;SDS011;22458;45.328;9.514;2023-07-09T12:26:00;7.82;;;4.00;;
36423;SDS011;22458;45.328;9.514;2023-07-09T12:28:28;5.15;;;3.70;;
36423;SDS011;22458;45.328;9.514;2023-07-09T12:30:54;6.40;;;4.70;;
36423;SDS011;22458;45.328;9.514;2023-07-09T12:33:21;4.32;;;3.53;;
36423;SDS011;22458;45.328;9.514;2023-07-09T12:36:10;5.47;;;3.67;;
36423;SDS011;22458;45.328;9.514;2023-07-09T12:38:40;5.82;;;3.63;;
36423;SDS011;22458;45.328;9.514;2023-07-09T12:41:22;5.93;;;3.47;;
36423;SDS011;22458;45.328;9.514;2023-07-09T12:43:52;4.20;;;3.42;;
36423;SDS011;22458;45.328;9.514;2023-07-09T12:46:21;5.65;;;3.80;;
36423;SDS011;22458;45.328;9.514;2023-07-09T12:48:48;5.18;;;3.58;;
36423;SDS011;22458;45.328;9.514;2023-07-09T12:51:21;5.78;;;3.25;;
36423;SDS011;22458;45.328;9.514;2023-07-09T12:56:44;6.13;;;3.70;;
36423;SDS011;22458;45.328;9.514;2023-07-09T13:01:51;4.65;;;3.08;;
36423;SDS011;22458;45.328;9.514;2023-07-09T13:04:27;4.47;;;2.83;;
36423;SDS011;22458;45.328;9.514;2023-07-09T13:06:58;5.80;;;3.15;;
36423;SDS011;22458;45.328;9.514;2023-07-09T13:09:25;7.25;;;3.63;;
36423;SDS011;22458;45.328;9.514;2023-07-09T13:11:51;6.95;;;3.25;;
36423;SDS011;22458;45.328;9.514;2023-07-09T13:14:19;5.47;;;3.63;;
36423;SDS011;22458;45.328;9.514;2023-07-09T13:16:45;4.47;;;3.47;;
36423;SDS011;22458;45.328;9.514;2023-07-09T13:19:10;3.35;;;2.92;;
36423;SDS011;22458;45.328;9.514;2023-07-09T13:21:36;4.70;;;3.25;;
36423;SDS011;22458;45.328;9.514;2023-07-09T13:24:08;5.32;;;3.08;;
36423;SDS011;22458;45.328;9.514;2023-07-09T13:26:44;4.38;;;2.90;;
36423;SDS011;22458;45.328;9.514;2023-07-09T13:29:15;5.43;;;3.33;;
36423;SDS011;22458;45.328;9.514;2023-07-09T13:31:46;5.97;;;3.35;;
36423;SDS011;22458;45.328;9.514;2023-07-09T13:36:47;4.68;;;3.33;;
36423;SDS011;22458;45.328;9.514;2023-07-09T13:39:14;5.50;;;3.42;;
36423;SDS011;22458;45.328;9.514;2023-07-09T13:41:42;5.22;;;2.70;;
36423;SDS011;22458;45.328;9.514;2023-07-09T13:44:14;7.97;;;3.47;;
36423;SDS011;22458;45.328;9.514;2023-07-09T13:46:52;5.80;;;3.25;;
36423;SDS011;22458;45.328;9.514;2023-07-09T13:49:18;6.00;;;3.28;;
36423;SDS011;22458;45.328;9.514;2023-07-09T13:51:47;3.78;;;2.65;;
36423;SDS011;22458;45.328;9.514;2023-07-09T13:54:15;6.75;;;3.22;;
36423;SDS011;22458;45.328;9.514;2023-07-09T13:56:43;4.40;;;3.28;;
36423;SDS011;22458;45.328;9.514;2023-07-09T13:59:14;6.40;;;3.38;;
36423;SDS011;22458;45.328;9.514;2023-07-09T14:01:48;8.35;;;3.42;;
36423;SDS011;22458;45.328;9.514;2023-07-09T14:06:42;8.95;;;3.40;;
36423;SDS011;22458;45.328;9.514;2023-07-09T14:09:09;6.13;;;3.70;;
36423;SDS011;22458;45.328;9.514;2023-07-09T14:11:47;5.85;;;3.20;;
36423;SDS011;22458;45.328;9.514;2023-07-09T14:14:19;4.57;;;3.40;;
36423;SDS011;22458;45.328;9.514;2023-07-09T14:16:49;6.80;;;3.20;;
36423;SDS011;22458;45.328;9.514;2023-07-09T14:19:17;5.85;;;3.72;;
36423;SDS011;22458;45.328;9.514;2023-07-09T14:21:46;6.25;;;3.40;;
36423;SDS011;22458;45.328;9.514;2023-07-09T14:24:31;5.45;;;3.05;;
36423;SDS011;22458;45.328;9.514;2023-07-09T14:26:57;4.55;;;3.72;;
36423;SDS011;22458;45.328;9.514;2023-07-09T14:29:23;7.25;;;3.00;;
36423;SDS011;22458;45.328;9.514;2023-07-09T14:31:51;4.72;;;3.13;;
36423;SDS011;22458;45.328;9.514;2023-07-09T14:34:22;6.25;;;3.42;;
36423;SDS011;22458;45.328;9.514;2023-07-09T14:36:48;4.43;;;3.33;;
36423;SDS011;22458;45.328;9.514;2023-07-09T14:39:15;5.20;;;4.00;;
36423;SDS011;22458;45.328;9.514;2023-07-09T14:41:41;4.13;;;2.90;;
36423;SDS011;22458;45.328;9.514;2023-07-09T14:44:24;4.63;;;2.92;;
36423;SDS011;22458;45.328;9.514;2023-07-09T14:46:50;5.30;;;3.08;;
36423;SDS011;22458;45.328;9.514;2023-07-09T14:49:17;6.70;;;3.25;;
36423;SDS011;22458;45.328;9.514;2023-07-09T14:51:44;4.80;;;2.97;;
36423;SDS011;22458;45.328;9.514;2023-07-09T14:54:17;4.03;;;2.97;;
36423;SDS011;22458;45.328;9.514;2023-07-09T14:56:43;4.32;;;3.05;;
36423;SDS011;22458;45.328;9.514;2023-07-09T14:59:09;5.68;;;3.17;;
36423;SDS011;22458;45.328;9.514;2023-07-09T15:01:35;3.55;;;2.85;;
36423;SDS011;22458;45.328;9.514;2023-07-09T15:04:06;4.63;;;3.20;;
36423;SDS011;22458;45.328;9.514;2023-07-09T15:06:41;5.05;;;3.22;;
36423;SDS011;22458;45.328;9.514;2023-07-09T15:09:07;3.92;;;3.40;;
36423;SDS011;22458;45.328;9.514;2023-07-09T15:11:32;5.65;;;3.40;;
36423;SDS011;22458;45.328;9.514;2023-07-09T15:13:59;6.60;;;3.20;;
36423;SDS011;22458;45.328;9.514;2023-07-09T15:16:24;3.75;;;3.05;;
36423;SDS011;22458;45.328;9.514;2023-07-09T15:18:50;3.58;;;3.00;;
36423;SDS011;22458;45.328;9.514;2023-07-09T15:21:16;4.47;;;3.15;;
36423;SDS011;22458;45.328;9.514;2023-07-09T15:23:41;4.20;;;3.13;;
36423;SDS011;22458;45.328;9.514;2023-07-09T15:28:39;4.65;;;3.13;;
36423;SDS011;22458;45.328;9.514;2023-07-09T15:31:06;3.30;;;2.97;;
36423;SDS011;22458;45.328;9.514;2023-07-09T15:33:35;4.78;;;3.35;;
36423;SDS011;22458;45.328;9.514;2023-07-09T15:36:04;5.70;;;3.50;;
36423;SDS011;22458;45.328;9.514;2023-07-09T15:38:37;3.83;;;3.13;;
36423;SDS011;22458;45.328;9.514;2023-07-09T15:41:06;4.65;;;2.83;;
36423;SDS011;22458;45.328;9.514;2023-07-09T15:43:36;4.78;;;2.70;;
36423;SDS011;22458;45.328;9.514;2023-07-09T15:46:02;4.07;;;2.90;;
36423;SDS011;22458;45.328;9.514;2023-07-09T15:50:59;6.68;;;3.33;;
36423;SDS011;22458;45.328;9.514;2023-07-09T15:53:26;3.70;;;3.17;;
36423;SDS011;22458;45.328;9.514;2023-07-09T15:55:53;5.00;;;2.95;;